Timeline UpdatesTrip UpdatesNews PostsPvt PostsTravel TipsAdmin PostsConv PostsFollowed PostsChat RequestsBlog PostsPNR Posts

Disclaimer
Search
 
 
Fri Jul 25, 2014 16:48:03 ISTHomeTrainsΣChainsAtlasPNRForumGalleryNewsFAQTripsMembersLoginFeedback
No Recent News for this Train
Other Trains in the News **new
Latest...
.
Tue Jan 22, 2013 (09:18AM)
⇐ Return Journey: Train# 51421

51422/Nizamabad Pune Passenger (UnReserved)

Jan 16 2014 (7:31PM)
Change Departure Station:
Change Arrival Station:
Post a Train Travel TipPost a Train Travel Tip **new
Post a Comment/Question/Picture/VideoPost a Comment/Question/Picture/Video
Pantry/Catering
✕ NO Pantry Car
✓ Catering Avbl
Loco/Rake Reversals
DD/Daund Junction (7);
RSA - Rake Sharing
51433-34 and 51451-52
Rake/Coach Composition
SLR, UR, UR, UR, UR, UR, UR, UR, SLR,
Loco
PUNE WDM/G-3A / WDM-3D
News    PNR    Forum    Time-Table    Availability    Fare Chart    Map    Arr/Dep History    Trips    Gallery    ΣChains    X/O    Timeline    
Travel Time: 21h 15m    83 halts    Distance: 774 km    Avg Speed: 36 km/hr
Type: Passenger
Zone: CR/Central
Departs @ 23:40
Platform# ???
SMTWTFS
Nizamabad/NZB 
Arrives @ 20:55 +1 night
Platform# 6
SMTWTFS
Pune Junction/PUNE 

83 halts. 94 intermediate Stations between Nizamabad and Pune Junction

Show ALL intermediate Stations  Show Old Time-Table

#CodeStation NameX/OArrivesAvgDepartsAvgHaltPFDay#KmSpeedElevZoneAddress
1NZB»Nizamabad (3)»  -23:40---10.047384mSCRNizamabad, Telangana
2JKMJankampet Junction (1)  23:48-23:49-1m116.256391mSCRJankampet Junction nizamabad dist., Telangana
3NVTNavipet (2)  23:59-00:01-2m--115.653374mSCRNizamabad Dist., Telangana
4FKBFakrabad (1)  00:09-00:10-1m1222.667348mSCRNizamabad Dist., Telangana
5BSXBasar (2)  00:16-00:18-2m1229.459358mSCRDist Adilabad, Telangana
6DABDharmabad (2)  00:28-00:29-1m--239.268354mSCRDegaon, Maharashtra
7KEKKarkheliX  00:41-00:42-1m--252.856358mSCRBiloli, Maharashtra
8BLSABolsaXO  00:50-00:51-1m--260.222361mSCRDharmabad, Maharashtra
9UMRIUmri (1)XO  01:14-01:15-1m1268.752381mSCRHuzur Sahib Nanded, Maharashtra
10SLGHShelgaon Halt  01:24-01:25-1m--276.567378mSCRMudkhed, Maharashtra
11SVNSivungaonX  01:29-01:30-1m--280.915395mSCRHuzur Sahib Nanded, Maharashtra
12MUEMudkhed Junction (4)  01:58-02:00-2m--288.161378mSCRMudkhed, Maharashtra
13MGCMugat  02:09-02:10-1m--297.350360mSCRHuzur Sahib Nanded, Maharashtra
14PARDPathrad  02:14-02:15-1m--2100.648363mSCRHuzur Sahib Nanded, Maharashtra
15MTDIMaltekdi  02:24-02:25-1m--2107.711362mSCRNanded, Maharashtra
16NEDHazur Sahib Nanded (4)  02:40-02:45-5m22110.577366mSCRNanded, Maharashtra
17WNGWanegaonX  02:50-02:51-1m--2116.940371mSCRChudawa, Maharashtra
18LBGLimbgaon (2)X  02:58-02:59-1m--2121.672390mSCRHuzur Sahib Nanded, Maharashtra
19CRUChudawa (1)X  03:07-03:08-1m12131.235392mSCRHingoli, Maharashtra
20PAUPurna Junction (4)X  03:25-03:30-5m--2141.152384mSCRPurna, Maharashtra
21MQLMirkhal  03:44-03:45-1m--2153.254405mSCRPurna, Maharashtra
22PIZPingli (1)X  03:51-03:52-1m12158.560399mSCRParbhani, Maharashtra
23PBNParbhani Junction (3)X  04:03-04:05-2m12169.566414mSCRParbhani 431401, Maharashtra
24PGPergaon  04:16-04:17-1m--2181.673441mSCRParbhani, Maharashtra
25DAVDevalgaon Avchar  04:22-04:23-1m--2187.792425mSCRParbhani, Maharashtra
26MVOManwath Road (2)  04:29-04:30-1m--2196.982421mSCRParbhani, Maharashtra
27DGPPDhengli Pimpalgaon  04:34-04:35-1m--2202.496407mSCRSatuna, Maharashtra
28SELUSelu (2)  04:41-04:42-1m--2211.987436mSCRParbhani, Maharashtra
29SCOSatuna  04:49-04:50-1m--2222.153440mSCRSatona, Maharashtra
30UPRUsmanpur  04:59-05:00-1m--2230.020444mSCRUsmanpur, Maharashtra
31PTUPartur (2)X  05:29-05:30-1m--2239.648465mSCRJalna, Maharashtra
32PDGParadgaon  05:39-05:40-1m--2246.742454mSCRUsmanpur, Maharashtra
33RNERanjaniO  05:49-05:50-1m--2253.023469mSCRJalna, Maharashtra
34KODIKodiX  06:19-06:20-1m--2264.243473mSCRRanjani, Maharashtra
35SVDSarwari  06:34-06:35-1m--2274.221493mSCRRanjani, Maharashtra
36JJalna (3)  07:03-07:05-2m--2283.960502mSCRJalna, Maharashtra
37BDUBadnapur  07:24-07:25-1m--2302.966523mSCRJalna, Maharashtra
38KMVKarmadX  07:39-07:40-1m--2318.326567mSCRAurangabad, Maharashtra
39CTHChikalthan  07:49-07:50-1m--2322.3-582mSCRAurangabad, Maharashtra
40MKDDMukundwadi Halt (1)  07:54-07:55-1m12336.630580mSCRAurangabad, Maharashtra
41AWBAurangabad (5)X  08:15-08:20-5m--2346.653561mSCRAurangabad 431001, Maharashtra
42DLBDaulatabad (1)  08:34-08:35-1m12359.040575mSCRDaulatabad, Maharashtra
43POZPotul (1)  08:49-08:50-1m12368.337554mSCRLasur, Maharashtra
44LSRLasur (2)  09:09-09:10-1m--2380.168536mSCRAurangabad, Maharashtra
45KAJGKaranjgaon  09:19-09:20-1m--2390.331523mSCRLasur, Maharashtra
46PSDParsoda  09:29-09:30-1m--2394.953530mSCRRotegaon, Maharashtra
47RGORotegaonX  09:44-09:45-1m--2407.393547mSCRAurangabad, Maharashtra
48TRTarur  09:59-10:00-1m--2429.019586mSCRTaru, Maharashtra
49NSLNagarsol (2)  10:19-10:20-1m--2435.225589mSCRDist. Nashik, Maharashtra
50MMRManmad Junction (6)X  11:30-11:40-10m42460.120580mCRManmad 423104, Maharashtra
51ANKAnkai (3)  12:18-12:20-2m22473.072620mSCRDist. Nashik, Maharashtra
52YLYeola (2)X  12:33-12:35-2m--2488.763553mCRYeola, Maharashtra
53KPGKopargaon (2)12:48-12:50-2m12502.366508mCRKopargaon 423601, Maharashtra
54SNVRSanvatsarX  12:57-12:58-1m--2510.058521mCRNagpur-Aurngabad-Mumbai Hwy, Maharashtra
55KNGNKanhegaon (2)X  13:06-13:08-2m--2517.754498mCRAhmadnagar, Maharashtra
56PBPuntamba Junction (2)  13:18-13:20-2m22526.666501mCRPuntamba, Maharashtra
57CITChitali (1)X13:28-13:30-2m12535.525531mCRAhmadnagar, Maharashtra
58BAPBelapur (2)  13:58-14:00-2m22546.953541mCRShrirampur, Maharashtra
59NPWNipani Vadgaon (2)  14:07-14:08-1m--2553.251531mCRChitali, Maharashtra
60PDGNPadhegaon (1)  14:15-14:17-2m12559.178512mCRBelapur, Maharashtra
61TKMYTaklimiya (1)  14:24-14:25-1m12568.239511mCRVambori, Maharashtra
62RRIRahuri (2)X  14:33-14:35-2m--2573.361519mCRAhmadnagar, Maharashtra
63VBRVambori (1)X  14:48-14:50-2m12586.625547mCRAhmadnagar, Maharashtra
64VLVilad (1)X  15:18-15:20-2m12598.157598mCRAhmadnagar, Maharashtra
65NNBNimblak (1)O  15:29-15:30-1m12606.722656mCRAhmednagar, Maharashtra
66ANGAhmadnagar (2)  15:50-15:55-5m12614.040650mCRAhmednagar 414001, Maharashtra
67AKRAkolner (1)  16:14-16:15-1m12626.843689mCRAhmadnagar, Maharashtra
68SRLSarola (2)  16:23-16:25-2m12632.5450mCRAhmadnagar, Maharashtra
69RNJDRanjangaon Road (1)X  16:39-16:40-1m12643.046656mCRDist. Pune, Maharashtra
70VPRVisapur (2)X  16:48-16:50-2m12649.229186mCRAhmadnagar, Maharashtra
71BWDBelwandi (2)X  17:18-17:20-2m12662.965592mCRAhmadnagar, Maharashtra
72SGNDShrigonda Road (2)X  17:33-17:35-2m22677.021547mCRAhmadnagar, Maharashtra
73KSTHKashti (2)  17:59-18:00-1m12685.317540mCRDaund, Maharashtra
74DDDaund Junction (7)X18:45-19:00-15m42698.250521mCRNew Daund Dist. Pune 413801, Maharashtra
75PAAPatas (3)  19:14-19:15-1m12709.858532mCRDist. Pune 412219, Maharashtra
76KDTNKadethanX  19:20-19:21-1m12714.638532mCRDaund, Maharashtra
77KDGKedgaon (2)  19:29-19:30-1m22719.764544mCRDist. Pune 412203, Maharashtra
78KTTKhutbav (2)X  19:36-19:37-1m12726.142558mCRShirur-Daund Rd Daund, Maharashtra
79YTYevat (2)X  19:46-19:47-1m12732.363558mCRDist. Pune 412214, Maharashtra
80URIUruli (2)X  19:59-20:00-1m12745.062553mCRDist. Pune 412202, Maharashtra
81LONILoni (2)  20:12-20:13-1m12757.456541mCRPune 412201, Maharashtra
82MJBKManjari Budruk (2)X  20:19-20:20-1m12763.042550mCRPune 412307, Maharashtra
83HDPHadapsar (3)  20:27-20:28-1m22767.936554mCRPune 411028, Maharashtra
84GPRWGhorpuri West (2)  20:34-20:35-1m12771.57552mCRPune 411001, Maharashtra
85PUNE•Pune Junction (6)•  20:55--62773.8-556mCRPune 411001, Maharashtra
Scroll to Top
Scroll to Bottom